sensor_id;sensor_type;location;lat;lon;timestamp;P1;durP1;ratioP1;P2;durP2;ratioP2
66603;SDS011;53460;39.612;8.822;2024-01-15T00:01:57;5.15;;;1.45;;
66603;SDS011;53460;39.612;8.822;2024-01-15T00:04:22;7.53;;;1.67;;
66603;SDS011;53460;39.612;8.822;2024-01-15T00:06:49;3.83;;;1.77;;
66603;SDS011;53460;39.612;8.822;2024-01-15T00:09:15;3.13;;;1.55;;
66603;SDS011;53460;39.612;8.822;2024-01-15T00:11:41;2.90;;;1.08;;
66603;SDS011;53460;39.612;8.822;2024-01-15T00:14:07;6.70;;;1.63;;
66603;SDS011;53460;39.612;8.822;2024-01-15T00:16:33;4.10;;;1.60;;
66603;SDS011;53460;39.612;8.822;2024-01-15T00:18:59;5.00;;;1.92;;
66603;SDS011;53460;39.612;8.822;2024-01-15T00:21:24;7.47;;;2.38;;
66603;SDS011;53460;39.612;8.822;2024-01-15T00:23:50;4.63;;;1.38;;
66603;SDS011;53460;39.612;8.822;2024-01-15T00:26:16;5.53;;;2.20;;
66603;SDS011;53460;39.612;8.822;2024-01-15T00:28:42;3.25;;;1.50;;
66603;SDS011;53460;39.612;8.822;2024-01-15T00:31:07;4.43;;;1.73;;
66603;SDS011;53460;39.612;8.822;2024-01-15T00:33:33;4.45;;;1.50;;
66603;SDS011;53460;39.612;8.822;2024-01-15T00:35:59;8.13;;;2.13;;
66603;SDS011;53460;39.612;8.822;2024-01-15T00:38:24;2.78;;;1.70;;
66603;SDS011;53460;39.612;8.822;2024-01-15T00:40:50;5.60;;;1.92;;
66603;SDS011;53460;39.612;8.822;2024-01-15T00:43:16;4.70;;;1.67;;
66603;SDS011;53460;39.612;8.822;2024-01-15T00:45:44;3.20;;;1.48;;
66603;SDS011;53460;39.612;8.822;2024-01-15T00:48:10;4.10;;;1.65;;
66603;SDS011;53460;39.612;8.822;2024-01-15T00:50:36;7.25;;;1.55;;
66603;SDS011;53460;39.612;8.822;2024-01-15T00:53:01;3.70;;;1.27;;
66603;SDS011;53460;39.612;8.822;2024-01-15T00:55:28;5.70;;;1.73;;
66603;SDS011;53460;39.612;8.822;2024-01-15T00:57:54;3.80;;;1.83;;
66603;SDS011;53460;39.612;8.822;2024-01-15T01:00:20;6.70;;;1.70;;
66603;SDS011;53460;39.612;8.822;2024-01-15T01:02:45;7.40;;;1.95;;
66603;SDS011;53460;39.612;8.822;2024-01-15T01:05:11;7.25;;;1.67;;
66603;SDS011;53460;39.612;8.822;2024-01-15T01:07:37;7.13;;;1.90;;
66603;SDS011;53460;39.612;8.822;2024-01-15T01:10:03;4.90;;;2.00;;
66603;SDS011;53460;39.612;8.822;2024-01-15T01:12:29;5.97;;;2.00;;
66603;SDS011;53460;39.612;8.822;2024-01-15T01:14:55;4.63;;;1.88;;
66603;SDS011;53460;39.612;8.822;2024-01-15T01:17:21;4.25;;;2.03;;
66603;SDS011;53460;39.612;8.822;2024-01-15T01:19:47;8.27;;;2.10;;
66603;SDS011;53460;39.612;8.822;2024-01-15T01:22:13;5.45;;;2.10;;
66603;SDS011;53460;39.612;8.822;2024-01-15T01:24:38;5.22;;;1.85;;
66603;SDS011;53460;39.612;8.822;2024-01-15T01:27:04;5.10;;;1.98;;
66603;SDS011;53460;39.612;8.822;2024-01-15T01:29:30;6.28;;;1.63;;
66603;SDS011;53460;39.612;8.822;2024-01-15T01:31:55;3.83;;;1.40;;
66603;SDS011;53460;39.612;8.822;2024-01-15T01:34:21;2.97;;;1.20;;
66603;SDS011;53460;39.612;8.822;2024-01-15T01:36:47;2.83;;;1.50;;
66603;SDS011;53460;39.612;8.822;2024-01-15T01:39:13;4.00;;;1.33;;
66603;SDS011;53460;39.612;8.822;2024-01-15T01:41:38;3.80;;;2.20;;
66603;SDS011;53460;39.612;8.822;2024-01-15T01:44:05;2.05;;;1.42;;
66603;SDS011;53460;39.612;8.822;2024-01-15T01:46:31;3.05;;;1.23;;
66603;SDS011;53460;39.612;8.822;2024-01-15T01:48:57;5.50;;;2.45;;
66603;SDS011;53460;39.612;8.822;2024-01-15T01:51:23;3.83;;;1.85;;
66603;SDS011;53460;39.612;8.822;2024-01-15T01:53:50;4.03;;;2.00;;
66603;SDS011;53460;39.612;8.822;2024-01-15T01:56:16;3.58;;;1.42;;
66603;SDS011;53460;39.612;8.822;2024-01-15T01:58:43;5.47;;;1.60;;
66603;SDS011;53460;39.612;8.822;2024-01-15T02:01:09;5.72;;;1.27;;
66603;SDS011;53460;39.612;8.822;2024-01-15T02:03:36;3.90;;;1.80;;
66603;SDS011;53460;39.612;8.822;2024-01-15T02:06:02;6.57;;;1.40;;
66603;SDS011;53460;39.612;8.822;2024-01-15T02:08:28;5.90;;;1.67;;
66603;SDS011;53460;39.612;8.822;2024-01-15T02:10:54;3.83;;;1.25;;
66603;SDS011;53460;39.612;8.822;2024-01-15T02:13:20;2.83;;;1.30;;
66603;SDS011;53460;39.612;8.822;2024-01-15T02:15:45;4.80;;;1.73;;
66603;SDS011;53460;39.612;8.822;2024-01-15T02:18:11;6.53;;;1.60;;
66603;SDS011;53460;39.612;8.822;2024-01-15T02:20:37;4.57;;;1.55;;
66603;SDS011;53460;39.612;8.822;2024-01-15T02:28:03;1.73;;;1.27;;
66603;SDS011;53460;39.612;8.822;2024-01-15T02:30:30;3.20;;;1.17;;
66603;SDS011;53460;39.612;8.822;2024-01-15T02:32:57;4.68;;;1.73;;
66603;SDS011;53460;39.612;8.822;2024-01-15T02:35:22;2.42;;;1.27;;
66603;SDS011;53460;39.612;8.822;2024-01-15T02:37:48;4.07;;;1.42;;
66603;SDS011;53460;39.612;8.822;2024-01-15T02:40:13;3.85;;;1.50;;
66603;SDS011;53460;39.612;8.822;2024-01-15T02:42:39;3.30;;;1.13;;
66603;SDS011;53460;39.612;8.822;2024-01-15T02:45:04;2.88;;;1.40;;
66603;SDS011;53460;39.612;8.822;2024-01-15T02:47:30;5.68;;;1.52;;
66603;SDS011;53460;39.612;8.822;2024-01-15T02:49:56;3.10;;;1.45;;
66603;SDS011;53460;39.612;8.822;2024-01-15T02:52:21;5.80;;;2.00;;
66603;SDS011;53460;39.612;8.822;2024-01-15T02:54:47;6.18;;;1.95;;
66603;SDS011;53460;39.612;8.822;2024-01-15T02:57:13;9.23;;;2.45;;
66603;SDS011;53460;39.612;8.822;2024-01-15T02:59:38;3.47;;;1.52;;
66603;SDS011;53460;39.612;8.822;2024-01-15T03:02:04;1.65;;;1.23;;
66603;SDS011;53460;39.612;8.822;2024-01-15T03:04:30;5.53;;;1.42;;
66603;SDS011;53460;39.612;8.822;2024-01-15T03:06:55;7.20;;;1.67;;
66603;SDS011;53460;39.612;8.822;2024-01-15T03:09:21;7.43;;;2.28;;
66603;SDS011;53460;39.612;8.822;2024-01-15T03:11:46;4.00;;;1.60;;
66603;SDS011;53460;39.612;8.822;2024-01-15T03:14:13;4.72;;;1.63;;
66603;SDS011;53460;39.612;8.822;2024-01-15T03:16:39;3.55;;;1.52;;
66603;SDS011;53460;39.612;8.822;2024-01-15T03:19:05;5.75;;;1.70;;
66603;SDS011;53460;39.612;8.822;2024-01-15T03:21:31;5.00;;;1.88;;
66603;SDS011;53460;39.612;8.822;2024-01-15T03:23:56;5.03;;;1.90;;
66603;SDS011;53460;39.612;8.822;2024-01-15T03:26:22;7.75;;;1.90;;
66603;SDS011;53460;39.612;8.822;2024-01-15T03:28:47;3.92;;;1.83;;
66603;SDS011;53460;39.612;8.822;2024-01-15T03:31:13;4.97;;;1.63;;
66603;SDS011;53460;39.612;8.822;2024-01-15T03:33:39;7.55;;;1.60;;
66603;SDS011;53460;39.612;8.822;2024-01-15T03:36:04;2.90;;;1.63;;
66603;SDS011;53460;39.612;8.822;2024-01-15T03:38:30;2.60;;;1.45;;
66603;SDS011;53460;39.612;8.822;2024-01-15T03:40:56;4.47;;;1.30;;
66603;SDS011;53460;39.612;8.822;2024-01-15T03:43:21;5.30;;;1.58;;
66603;SDS011;53460;39.612;8.822;2024-01-15T03:45:47;6.05;;;1.90;;
66603;SDS011;53460;39.612;8.822;2024-01-15T03:48:13;5.15;;;1.52;;
66603;SDS011;53460;39.612;8.822;2024-01-15T03:50:38;3.53;;;1.50;;
66603;SDS011;53460;39.612;8.822;2024-01-15T03:53:04;4.18;;;1.40;;
66603;SDS011;53460;39.612;8.822;2024-01-15T03:55:30;4.15;;;1.50;;
66603;SDS011;53460;39.612;8.822;2024-01-15T03:57:55;5.53;;;1.75;;
66603;SDS011;53460;39.612;8.822;2024-01-15T04:00:21;3.53;;;1.55;;
66603;SDS011;53460;39.612;8.822;2024-01-15T04:02:47;2.80;;;1.63;;
66603;SDS011;53460;39.612;8.822;2024-01-15T04:05:13;4.78;;;1.95;;
66603;SDS011;53460;39.612;8.822;2024-01-15T04:07:38;5.30;;;2.05;;
66603;SDS011;53460;39.612;8.822;2024-01-15T04:10:04;5.07;;;3.10;;
66603;SDS011;53460;39.612;8.822;2024-01-15T04:12:31;7.22;;;2.22;;
66603;SDS011;53460;39.612;8.822;2024-01-15T04:14:56;3.40;;;2.00;;
66603;SDS011;53460;39.612;8.822;2024-01-15T04:17:22;6.63;;;2.08;;
66603;SDS011;53460;39.612;8.822;2024-01-15T04:19:48;3.83;;;1.60;;
66603;SDS011;53460;39.612;8.822;2024-01-15T04:22:13;2.65;;;1.80;;
66603;SDS011;53460;39.612;8.822;2024-01-15T04:24:39;4.30;;;1.90;;
66603;SDS011;53460;39.612;8.822;2024-01-15T04:27:05;5.60;;;1.88;;
66603;SDS011;53460;39.612;8.822;2024-01-15T04:29:32;5.20;;;1.25;;
66603;SDS011;53460;39.612;8.822;2024-01-15T04:31:57;2.63;;;1.50;;
66603;SDS011;53460;39.612;8.822;2024-01-15T04:34:23;3.38;;;1.50;;
66603;SDS011;53460;39.612;8.822;2024-01-15T04:36:49;2.03;;;1.50;;
66603;SDS011;53460;39.612;8.822;2024-01-15T04:39:14;1.90;;;1.10;;
66603;SDS011;53460;39.612;8.822;2024-01-15T04:41:40;3.33;;;1.58;;
66603;SDS011;53460;39.612;8.822;2024-01-15T04:44:05;6.65;;;1.40;;
66603;SDS011;53460;39.612;8.822;2024-01-15T04:46:31;5.53;;;1.33;;
66603;SDS011;53460;39.612;8.822;2024-01-15T04:48:57;3.95;;;1.63;;
66603;SDS011;53460;39.612;8.822;2024-01-15T04:51:22;2.95;;;1.50;;
66603;SDS011;53460;39.612;8.822;2024-01-15T04:53:48;2.88;;;1.48;;
66603;SDS011;53460;39.612;8.822;2024-01-15T04:56:13;2.70;;;1.65;;
66603;SDS011;53460;39.612;8.822;2024-01-15T04:58:39;3.97;;;1.23;;
66603;SDS011;53460;39.612;8.822;2024-01-15T05:01:05;5.75;;;1.50;;
66603;SDS011;53460;39.612;8.822;2024-01-15T05:03:30;2.40;;;1.17;;
66603;SDS011;53460;39.612;8.822;2024-01-15T05:05:56;5.93;;;1.55;;
66603;SDS011;53460;39.612;8.822;2024-01-15T05:08:22;2.20;;;1.23;;
66603;SDS011;53460;39.612;8.822;2024-01-15T05:10:47;2.85;;;1.50;;
66603;SDS011;53460;39.612;8.822;2024-01-15T05:13:13;3.35;;;1.58;;
66603;SDS011;53460;39.612;8.822;2024-01-15T05:15:39;3.00;;;1.42;;
66603;SDS011;53460;39.612;8.822;2024-01-15T05:18:05;1.98;;;1.15;;
66603;SDS011;53460;39.612;8.822;2024-01-15T05:20:31;4.72;;;1.63;;
66603;SDS011;53460;39.612;8.822;2024-01-15T05:22:56;2.60;;;1.15;;
66603;SDS011;53460;39.612;8.822;2024-01-15T05:25:22;2.42;;;1.20;;
66603;SDS011;53460;39.612;8.822;2024-01-15T05:27:48;1.50;;;1.23;;
66603;SDS011;53460;39.612;8.822;2024-01-15T05:30:14;3.22;;;1.27;;
66603;SDS011;53460;39.612;8.822;2024-01-15T05:32:39;2.88;;;1.30;;
66603;SDS011;53460;39.612;8.822;2024-01-15T05:35:05;3.10;;;1.77;;
66603;SDS011;53460;39.612;8.822;2024-01-15T05:37:31;4.95;;;1.83;;
66603;SDS011;53460;39.612;8.822;2024-01-15T05:39:57;5.30;;;1.52;;
66603;SDS011;53460;39.612;8.822;2024-01-15T05:42:22;2.40;;;1.50;;
66603;SDS011;53460;39.612;8.822;2024-01-15T05:44:48;2.38;;;1.50;;
66603;SDS011;53460;39.612;8.822;2024-01-15T05:47:14;1.80;;;1.40;;
66603;SDS011;53460;39.612;8.822;2024-01-15T05:49:39;5.72;;;2.03;;
66603;SDS011;53460;39.612;8.822;2024-01-15T05:52:05;3.15;;;1.42;;
66603;SDS011;53460;39.612;8.822;2024-01-15T05:54:31;2.97;;;1.60;;
66603;SDS011;53460;39.612;8.822;2024-01-15T05:56:57;3.95;;;1.25;;
66603;SDS011;53460;39.612;8.822;2024-01-15T05:59:23;3.67;;;1.35;;
66603;SDS011;53460;39.612;8.822;2024-01-15T06:01:48;2.55;;;1.23;;
66603;SDS011;53460;39.612;8.822;2024-01-15T06:04:14;4.78;;;1.70;;
66603;SDS011;53460;39.612;8.822;2024-01-15T06:06:40;4.95;;;1.80;;
66603;SDS011;53460;39.612;8.822;2024-01-15T06:09:05;7.70;;;3.08;;
66603;SDS011;53460;39.612;8.822;2024-01-15T06:11:31;7.50;;;2.13;;
66603;SDS011;53460;39.612;8.822;2024-01-15T06:13:57;6.35;;;3.50;;
66603;SDS011;53460;39.612;8.822;2024-01-15T06:16:23;6.68;;;2.92;;
66603;SDS011;53460;39.612;8.822;2024-01-15T06:18:49;6.18;;;2.13;;
66603;SDS011;53460;39.612;8.822;2024-01-15T06:21:15;3.28;;;2.05;;
66603;SDS011;53460;39.612;8.822;2024-01-15T06:23:41;5.18;;;2.38;;
66603;SDS011;53460;39.612;8.822;2024-01-15T06:26:07;4.65;;;2.38;;
66603;SDS011;53460;39.612;8.822;2024-01-15T06:28:33;9.40;;;2.90;;
66603;SDS011;53460;39.612;8.822;2024-01-15T06:30:58;4.57;;;2.42;;
66603;SDS011;53460;39.612;8.822;2024-01-15T06:33:24;9.35;;;2.85;;
66603;SDS011;53460;39.612;8.822;2024-01-15T06:35:50;3.63;;;2.03;;
66603;SDS011;53460;39.612;8.822;2024-01-15T06:38:16;6.00;;;2.42;;
66603;SDS011;53460;39.612;8.822;2024-01-15T06:40:42;7.10;;;1.70;;
66603;SDS011;53460;39.612;8.822;2024-01-15T06:43:13;10.90;;;1.85;;
66603;SDS011;53460;39.612;8.822;2024-01-15T06:45:41;7.10;;;3.22;;
66603;SDS011;53460;39.612;8.822;2024-01-15T06:48:07;9.13;;;6.47;;
66603;SDS011;53460;39.612;8.822;2024-01-15T06:50:33;8.07;;;3.50;;
66603;SDS011;53460;39.612;8.822;2024-01-15T06:52:58;2.75;;;1.85;;
66603;SDS011;53460;39.612;8.822;2024-01-15T06:55:24;8.40;;;3.35;;
66603;SDS011;53460;39.612;8.822;2024-01-15T06:57:51;6.85;;;2.97;;
66603;SDS011;53460;39.612;8.822;2024-01-15T07:00:17;10.00;;;4.18;;
66603;SDS011;53460;39.612;8.822;2024-01-15T07:02:44;6.00;;;3.67;;
66603;SDS011;53460;39.612;8.822;2024-01-15T07:05:11;9.20;;;3.45;;
66603;SDS011;53460;39.612;8.822;2024-01-15T07:07:36;7.75;;;3.38;;
66603;SDS011;53460;39.612;8.822;2024-01-15T07:10:02;4.57;;;2.85;;
66603;SDS011;53460;39.612;8.822;2024-01-15T07:12:29;5.88;;;2.95;;
66603;SDS011;53460;39.612;8.822;2024-01-15T07:14:55;11.20;;;3.58;;
66603;SDS011;53460;39.612;8.822;2024-01-15T07:17:21;8.38;;;4.97;;
66603;SDS011;53460;39.612;8.822;2024-01-15T07:19:47;6.82;;;2.67;;
66603;SDS011;53460;39.612;8.822;2024-01-15T07:22:13;5.03;;;2.28;;
66603;SDS011;53460;39.612;8.822;2024-01-15T07:24:40;9.90;;;4.70;;
66603;SDS011;53460;39.612;8.822;2024-01-15T07:27:06;14.25;;;6.32;;
66603;SDS011;53460;39.612;8.822;2024-01-15T07:29:31;7.75;;;3.42;;
66603;SDS011;53460;39.612;8.822;2024-01-15T07:32:02;6.93;;;3.20;;
66603;SDS011;53460;39.612;8.822;2024-01-15T07:34:28;7.10;;;2.58;;
66603;SDS011;53460;39.612;8.822;2024-01-15T07:36:54;8.25;;;2.35;;
66603;SDS011;53460;39.612;8.822;2024-01-15T07:39:20;7.68;;;2.97;;
66603;SDS011;53460;39.612;8.822;2024-01-15T07:41:47;8.43;;;2.72;;
66603;SDS011;53460;39.612;8.822;2024-01-15T07:44:13;15.70;;;5.03;;
66603;SDS011;53460;39.612;8.822;2024-01-15T07:46:40;9.55;;;4.35;;
66603;SDS011;53460;39.612;8.822;2024-01-15T07:49:09;13.75;;;5.57;;
66603;SDS011;53460;39.612;8.822;2024-01-15T07:51:34;11.45;;;4.57;;
66603;SDS011;53460;39.612;8.822;2024-01-15T07:54:00;10.95;;;5.05;;
66603;SDS011;53460;39.612;8.822;2024-01-15T07:56:26;22.67;;;10.95;;
66603;SDS011;53460;39.612;8.822;2024-01-15T07:58:52;23.73;;;7.30;;
66603;SDS011;53460;39.612;8.822;2024-01-15T08:01:18;15.63;;;3.95;;
66603;SDS011;53460;39.612;8.822;2024-01-15T08:03:44;10.88;;;3.28;;
66603;SDS011;53460;39.612;8.822;2024-01-15T08:06:09;6.72;;;3.28;;
66603;SDS011;53460;39.612;8.822;2024-01-15T08:08:36;20.40;;;8.43;;
66603;SDS011;53460;39.612;8.822;2024-01-15T08:11:02;22.83;;;11.25;;
66603;SDS011;53460;39.612;8.822;2024-01-15T08:13:28;32.63;;;22.52;;
66603;SDS011;53460;39.612;8.822;2024-01-15T08:15:53;15.63;;;6.53;;
66603;SDS011;53460;39.612;8.822;2024-01-15T08:18:19;12.65;;;5.28;;
66603;SDS011;53460;39.612;8.822;2024-01-15T08:20:47;15.70;;;9.35;;
66603;SDS011;53460;39.612;8.822;2024-01-15T08:23:12;23.35;;;20.35;;
66603;SDS011;53460;39.612;8.822;2024-01-15T08:25:38;16.85;;;9.85;;
66603;SDS011;53460;39.612;8.822;2024-01-15T08:28:04;17.33;;;12.20;;
66603;SDS011;53460;39.612;8.822;2024-01-15T08:30:30;15.63;;;8.73;;
66603;SDS011;53460;39.612;8.822;2024-01-15T08:32:56;13.65;;;8.18;;
66603;SDS011;53460;39.612;8.822;2024-01-15T08:35:22;20.63;;;9.35;;
66603;SDS011;53460;39.612;8.822;2024-01-15T08:37:48;13.55;;;7.50;;
66603;SDS011;53460;39.612;8.822;2024-01-15T08:40:15;10.52;;;4.55;;
66603;SDS011;53460;39.612;8.822;2024-01-15T08:42:41;12.52;;;4.68;;
66603;SDS011;53460;39.612;8.822;2024-01-15T08:45:08;7.55;;;4.35;;
66603;SDS011;53460;39.612;8.822;2024-01-15T08:47:34;6.93;;;3.03;;
66603;SDS011;53460;39.612;8.822;2024-01-15T08:50:00;10.38;;;3.35;;
66603;SDS011;53460;39.612;8.822;2024-01-15T08:52:26;6.35;;;3.47;;
66603;SDS011;53460;39.612;8.822;2024-01-15T08:54:51;5.88;;;2.28;;
66603;SDS011;53460;39.612;8.822;2024-01-15T08:57:17;9.57;;;2.85;;
66603;SDS011;53460;39.612;8.822;2024-01-15T08:59:43;5.72;;;2.20;;
66603;SDS011;53460;39.612;8.822;2024-01-15T09:02:08;11.82;;;4.70;;
66603;SDS011;53460;39.612;8.822;2024-01-15T09:04:34;8.23;;;3.38;;
66603;SDS011;53460;39.612;8.822;2024-01-15T09:07:00;8.05;;;3.58;;
66603;SDS011;53460;39.612;8.822;2024-01-15T09:09:25;6.28;;;3.25;;
66603;SDS011;53460;39.612;8.822;2024-01-15T09:11:51;10.02;;;3.60;;
66603;SDS011;53460;39.612;8.822;2024-01-15T09:14:17;15.90;;;8.07;;
66603;SDS011;53460;39.612;8.822;2024-01-15T09:16:43;7.50;;;3.45;;
66603;SDS011;53460;39.612;8.822;2024-01-15T09:19:08;13.00;;;3.13;;
66603;SDS011;53460;39.612;8.822;2024-01-15T09:21:34;12.43;;;4.93;;
66603;SDS011;53460;39.612;8.822;2024-01-15T09:24:00;9.75;;;2.85;;
66603;SDS011;53460;39.612;8.822;2024-01-15T09:26:25;9.05;;;2.42;;
66603;SDS011;53460;39.612;8.822;2024-01-15T09:28:51;5.13;;;2.30;;
66603;SDS011;53460;39.612;8.822;2024-01-15T09:31:17;6.13;;;2.58;;
66603;SDS011;53460;39.612;8.822;2024-01-15T09:33:44;8.52;;;2.33;;
66603;SDS011;53460;39.612;8.822;2024-01-15T09:36:10;5.80;;;1.95;;
66603;SDS011;53460;39.612;8.822;2024-01-15T09:38:36;3.42;;;1.90;;
66603;SDS011;53460;39.612;8.822;2024-01-15T09:41:01;6.38;;;1.90;;
66603;SDS011;53460;39.612;8.822;2024-01-15T09:43:27;4.63;;;2.38;;
66603;SDS011;53460;39.612;8.822;2024-01-15T09:45:53;7.80;;;2.00;;
66603;SDS011;53460;39.612;8.822;2024-01-15T09:48:20;5.38;;;2.15;;
66603;SDS011;53460;39.612;8.822;2024-01-15T09:50:45;3.92;;;2.70;;
66603;SDS011;53460;39.612;8.822;2024-01-15T09:53:11;6.72;;;2.13;;
66603;SDS011;53460;39.612;8.822;2024-01-15T09:55:39;3.85;;;2.13;;
66603;SDS011;53460;39.612;8.822;2024-01-15T09:58:05;6.18;;;2.22;;
66603;SDS011;53460;39.612;8.822;2024-01-15T10:00:30;4.93;;;1.88;;
66603;SDS011;53460;39.612;8.822;2024-01-15T10:02:58;5.40;;;1.88;;
66603;SDS011;53460;39.612;8.822;2024-01-15T10:05:26;4.38;;;1.48;;
66603;SDS011;53460;39.612;8.822;2024-01-15T10:07:53;6.93;;;2.72;;
66603;SDS011;53460;39.612;8.822;2024-01-15T10:10:20;5.97;;;2.22;;
66603;SDS011;53460;39.612;8.822;2024-01-15T10:12:47;5.28;;;1.98;;
66603;SDS011;53460;39.612;8.822;2024-01-15T10:15:13;6.60;;;2.17;;
66603;SDS011;53460;39.612;8.822;2024-01-15T10:17:39;4.22;;;1.50;;
66603;SDS011;53460;39.612;8.822;2024-01-15T10:20:11;4.47;;;2.05;;
66603;SDS011;53460;39.612;8.822;2024-01-15T10:22:44;4.00;;;1.60;;
66603;SDS011;53460;39.612;8.822;2024-01-15T10:25:13;3.10;;;1.27;;
66603;SDS011;53460;39.612;8.822;2024-01-15T10:27:43;1.50;;;1.23;;
66603;SDS011;53460;39.612;8.822;2024-01-15T10:30:11;4.03;;;1.77;;
66603;SDS011;53460;39.612;8.822;2024-01-15T10:32:39;3.17;;;1.33;;
66603;SDS011;53460;39.612;8.822;2024-01-15T10:35:07;6.97;;;1.58;;
66603;SDS011;53460;39.612;8.822;2024-01-15T10:37:33;3.40;;;1.30;;
66603;SDS011;53460;39.612;8.822;2024-01-15T10:40:01;6.20;;;1.52;;
66603;SDS011;53460;39.612;8.822;2024-01-15T10:42:30;3.63;;;1.50;;
66603;SDS011;53460;39.612;8.822;2024-01-15T10:44:56;5.07;;;2.45;;
66603;SDS011;53460;39.612;8.822;2024-01-15T10:47:21;2.83;;;1.40;;
66603;SDS011;53460;39.612;8.822;2024-01-15T10:49:48;5.93;;;2.15;;
66603;SDS011;53460;39.612;8.822;2024-01-15T10:52:14;5.72;;;1.75;;
66603;SDS011;53460;39.612;8.822;2024-01-15T10:54:40;4.70;;;1.92;;
66603;SDS011;53460;39.612;8.822;2024-01-15T10:57:08;6.30;;;2.35;;
66603;SDS011;53460;39.612;8.822;2024-01-15T10:59:34;4.45;;;1.80;;
66603;SDS011;53460;39.612;8.822;2024-01-15T11:02:01;6.60;;;1.98;;
66603;SDS011;53460;39.612;8.822;2024-01-15T11:04:27;4.18;;;1.63;;
66603;SDS011;53460;39.612;8.822;2024-01-15T11:06:53;4.22;;;1.50;;
66603;SDS011;53460;39.612;8.822;2024-01-15T11:09:20;5.25;;;1.73;;
66603;SDS011;53460;39.612;8.822;2024-01-15T11:11:46;4.70;;;1.90;;
66603;SDS011;53460;39.612;8.822;2024-01-15T11:17:20;4.90;;;1.90;;
66603;SDS011;53460;39.612;8.822;2024-01-15T11:19:48;5.63;;;1.85;;
66603;SDS011;53460;39.612;8.822;2024-01-15T11:25:18;5.80;;;2.20;;
66603;SDS011;53460;39.612;8.822;2024-01-15T11:27:46;5.18;;;1.73;;
66603;SDS011;53460;39.612;8.822;2024-01-15T11:30:13;3.00;;;1.55;;
66603;SDS011;53460;39.612;8.822;2024-01-15T11:32:39;3.45;;;1.27;;
66603;SDS011;53460;39.612;8.822;2024-01-15T11:35:12;4.93;;;1.23;;
66603;SDS011;53460;39.612;8.822;2024-01-15T11:40:20;5.03;;;1.50;;
66603;SDS011;53460;39.612;8.822;2024-01-15T11:43:03;4.93;;;1.50;;
66603;SDS011;53460;39.612;8.822;2024-01-15T11:45:29;3.22;;;1.42;;
66603;SDS011;53460;39.612;8.822;2024-01-15T11:48:11;6.55;;;1.73;;
66603;SDS011;53460;39.612;8.822;2024-01-15T11:55:49;6.63;;;1.60;;
66603;SDS011;53460;39.612;8.822;2024-01-15T11:58:16;3.72;;;1.40;;
66603;SDS011;53460;39.612;8.822;2024-01-15T12:00:47;6.63;;;1.88;;
66603;SDS011;53460;39.612;8.822;2024-01-15T12:03:17;7.88;;;1.60;;
66603;SDS011;53460;39.612;8.822;2024-01-15T12:05:46;6.93;;;1.80;;
66603;SDS011;53460;39.612;8.822;2024-01-15T12:08:12;6.50;;;1.70;;
66603;SDS011;53460;39.612;8.822;2024-01-15T12:10:38;7.55;;;2.28;;
66603;SDS011;53460;39.612;8.822;2024-01-15T12:15:38;5.32;;;1.52;;
66603;SDS011;53460;39.612;8.822;2024-01-15T12:18:08;5.55;;;1.65;;
66603;SDS011;53460;39.612;8.822;2024-01-15T12:20:35;5.15;;;2.05;;
66603;SDS011;53460;39.612;8.822;2024-01-15T12:23:02;3.53;;;1.65;;
66603;SDS011;53460;39.612;8.822;2024-01-15T12:25:29;5.53;;;1.80;;
66603;SDS011;53460;39.612;8.822;2024-01-15T12:27:56;4.78;;;2.00;;
66603;SDS011;53460;39.612;8.822;2024-01-15T12:30:22;7.20;;;1.67;;
66603;SDS011;53460;39.612;8.822;2024-01-15T12:32:48;8.65;;;2.55;;
66603;SDS011;53460;39.612;8.822;2024-01-15T12:35:14;2.40;;;1.35;;
66603;SDS011;53460;39.612;8.822;2024-01-15T12:37:41;5.38;;;1.88;;
66603;SDS011;53460;39.612;8.822;2024-01-15T12:40:08;4.57;;;2.05;;
66603;SDS011;53460;39.612;8.822;2024-01-15T12:42:39;5.32;;;1.30;;
66603;SDS011;53460;39.612;8.822;2024-01-15T12:45:12;7.57;;;1.88;;
66603;SDS011;53460;39.612;8.822;2024-01-15T12:47:38;4.00;;;1.30;;
66603;SDS011;53460;39.612;8.822;2024-01-15T12:50:11;10.35;;;2.40;;
66603;SDS011;53460;39.612;8.822;2024-01-15T12:52:37;5.47;;;1.52;;
66603;SDS011;53460;39.612;8.822;2024-01-15T12:55:06;8.90;;;2.20;;
66603;SDS011;53460;39.612;8.822;2024-01-15T12:57:34;4.18;;;1.90;;
66603;SDS011;53460;39.612;8.822;2024-01-15T13:00:00;6.75;;;1.88;;
66603;SDS011;53460;39.612;8.822;2024-01-15T13:02:25;6.97;;;2.35;;
66603;SDS011;53460;39.612;8.822;2024-01-15T13:04:51;4.13;;;1.70;;
66603;SDS011;53460;39.612;8.822;2024-01-15T13:07:17;7.63;;;1.65;;
66603;SDS011;53460;39.612;8.822;2024-01-15T13:09:43;5.47;;;2.00;;
66603;SDS011;53460;39.612;8.822;2024-01-15T13:12:08;6.97;;;2.08;;
66603;SDS011;53460;39.612;8.822;2024-01-15T13:14:34;4.65;;;1.42;;
66603;SDS011;53460;39.612;8.822;2024-01-15T13:17:00;7.80;;;1.85;;
66603;SDS011;53460;39.612;8.822;2024-01-15T13:19:26;5.65;;;1.83;;
66603;SDS011;53460;39.612;8.822;2024-01-15T13:21:52;7.68;;;1.80;;
66603;SDS011;53460;39.612;8.822;2024-01-15T13:24:18;4.75;;;1.98;;
66603;SDS011;53460;39.612;8.822;2024-01-15T13:26:44;3.92;;;1.35;;
66603;SDS011;53460;39.612;8.822;2024-01-15T13:29:10;6.43;;;2.60;;
66603;SDS011;53460;39.612;8.822;2024-01-15T13:31:36;3.05;;;1.90;;
66603;SDS011;53460;39.612;8.822;2024-01-15T13:34:03;6.32;;;1.75;;
66603;SDS011;53460;39.612;8.822;2024-01-15T13:36:29;7.13;;;1.88;;
66603;SDS011;53460;39.612;8.822;2024-01-15T13:38:54;6.28;;;2.00;;
66603;SDS011;53460;39.612;8.822;2024-01-15T13:41:20;5.13;;;1.73;;
66603;SDS011;53460;39.612;8.822;2024-01-15T13:43:53;6.05;;;2.00;;
66603;SDS011;53460;39.612;8.822;2024-01-15T13:46:25;9.32;;;1.52;;
66603;SDS011;53460;39.612;8.822;2024-01-15T13:48:52;2.93;;;1.73;;
66603;SDS011;53460;39.612;8.822;2024-01-15T13:51:18;7.55;;;1.73;;
66603;SDS011;53460;39.612;8.822;2024-01-15T13:53:44;2.15;;;1.10;;
66603;SDS011;53460;39.612;8.822;2024-01-15T13:56:10;7.28;;;2.40;;
66603;SDS011;53460;39.612;8.822;2024-01-15T13:58:36;4.55;;;1.40;;
66603;SDS011;53460;39.612;8.822;2024-01-15T14:01:02;3.83;;;1.73;;
66603;SDS011;53460;39.612;8.822;2024-01-15T14:03:31;3.75;;;1.63;;
66603;SDS011;53460;39.612;8.822;2024-01-15T14:05:57;5.35;;;1.73;;
66603;SDS011;53460;39.612;8.822;2024-01-15T14:08:23;7.47;;;1.70;;
66603;SDS011;53460;39.612;8.822;2024-01-15T14:10:50;7.43;;;1.75;;
66603;SDS011;53460;39.612;8.822;2024-01-15T14:13:16;6.20;;;1.92;;
66603;SDS011;53460;39.612;8.822;2024-01-15T14:15:42;5.15;;;1.67;;
66603;SDS011;53460;39.612;8.822;2024-01-15T14:18:08;5.25;;;1.83;;
66603;SDS011;53460;39.612;8.822;2024-01-15T14:20:33;6.80;;;1.10;;
66603;SDS011;53460;39.612;8.822;2024-01-15T14:22:59;5.88;;;1.30;;
66603;SDS011;53460;39.612;8.822;2024-01-15T14:25:25;2.42;;;1.10;;
66603;SDS011;53460;39.612;8.822;2024-01-15T14:27:50;2.72;;;1.20;;
66603;SDS011;53460;39.612;8.822;2024-01-15T14:30:16;8.27;;;1.58;;
66603;SDS011;53460;39.612;8.822;2024-01-15T14:32:43;5.03;;;1.20;;
66603;SDS011;53460;39.612;8.822;2024-01-15T14:35:09;7.32;;;1.52;;
66603;SDS011;53460;39.612;8.822;2024-01-15T14:37:38;5.78;;;1.77;;
66603;SDS011;53460;39.612;8.822;2024-01-15T14:40:05;4.00;;;0.98;;
66603;SDS011;53460;39.612;8.822;2024-01-15T14:42:33;4.53;;;1.13;;
66603;SDS011;53460;39.612;8.822;2024-01-15T14:44:59;5.53;;;1.38;;
66603;SDS011;53460;39.612;8.822;2024-01-15T14:47:24;5.40;;;1.30;;
66603;SDS011;53460;39.612;8.822;2024-01-15T14:49:50;6.93;;;1.50;;
66603;SDS011;53460;39.612;8.822;2024-01-15T14:52:16;4.88;;;1.58;;
66603;SDS011;53460;39.612;8.822;2024-01-15T14:54:42;5.15;;;1.60;;
66603;SDS011;53460;39.612;8.822;2024-01-15T14:57:07;9.07;;;1.58;;
66603;SDS011;53460;39.612;8.822;2024-01-15T14:59:33;3.78;;;1.23;;
66603;SDS011;53460;39.612;8.822;2024-01-15T15:01:59;2.45;;;1.45;;